sensor_id;sensor_type;location;lat;lon;timestamp;temperature;humidity
5136;DHT22;2586;48.710;9.202;2023-05-20T00:02:04;11.80;1.00
5136;DHT22;2586;48.710;9.202;2023-05-20T00:04:30;11.80;1.00
5136;DHT22;2586;48.710;9.202;2023-05-20T00:06:56;11.90;1.00
5136;DHT22;2586;48.710;9.202;2023-05-20T00:09:21;12.00;99.90
5136;DHT22;2586;48.710;9.202;2023-05-20T00:11:47;12.00;99.90
5136;DHT22;2586;48.710;9.202;2023-05-20T00:14:12;12.00;99.90
5136;DHT22;2586;48.710;9.202;2023-05-20T00:16:38;12.10;99.90
5136;DHT22;2586;48.710;9.202;2023-05-20T00:19:04;12.10;99.90
5136;DHT22;2586;48.710;9.202;2023-05-20T00:21:29;12.10;99.90
5136;DHT22;2586;48.710;9.202;2023-05-20T00:23:55;12.20;99.90
5136;DHT22;2586;48.710;9.202;2023-05-20T00:26:21;12.20;99.90
5136;DHT22;2586;48.710;9.202;2023-05-20T00:28:47;12.20;99.90
5136;DHT22;2586;48.710;9.202;2023-05-20T00:31:12;12.20;99.90
5136;DHT22;2586;48.710;9.202;2023-05-20T00:33:38;12.20;1.00
5136;DHT22;2586;48.710;9.202;2023-05-20T00:36:04;12.30;99.90
5136;DHT22;2586;48.710;9.202;2023-05-20T00:38:30;12.30;1.00
5136;DHT22;2586;48.710;9.202;2023-05-20T00:40:55;12.40;1.00
5136;DHT22;2586;48.710;9.202;2023-05-20T00:43:21;12.30;99.90
5136;DHT22;2586;48.710;9.202;2023-05-20T00:45:50;12.30;99.90
5136;DHT22;2586;48.710;9.202;2023-05-20T00:48:16;12.40;99.90
5136;DHT22;2586;48.710;9.202;2023-05-20T00:50:42;12.30;99.90
5136;DHT22;2586;48.710;9.202;2023-05-20T00:53:08;12.30;99.90
5136;DHT22;2586;48.710;9.202;2023-05-20T00:55:34;12.30;99.90
5136;DHT22;2586;48.710;9.202;2023-05-20T00:58:00;12.40;1.00
5136;DHT22;2586;48.710;9.202;2023-05-20T01:00:26;12.30;1.00
5136;DHT22;2586;48.710;9.202;2023-05-20T01:02:52;12.30;1.00
5136;DHT22;2586;48.710;9.202;2023-05-20T01:05:19;12.30;1.00
5136;DHT22;2586;48.710;9.202;2023-05-20T01:07:45;12.30;1.00
5136;DHT22;2586;48.710;9.202;2023-05-20T01:10:10;12.30;1.00
5136;DHT22;2586;48.710;9.202;2023-05-20T01:12:42;12.30;1.00
5136;DHT22;2586;48.710;9.202;2023-05-20T01:15:09;12.30;1.00
5136;DHT22;2586;48.710;9.202;2023-05-20T01:17:39;12.30;1.00
5136;DHT22;2586;48.710;9.202;2023-05-20T01:20:07;12.20;1.00
5136;DHT22;2586;48.710;9.202;2023-05-20T01:22:57;12.30;1.00
5136;DHT22;2586;48.710;9.202;2023-05-20T01:25:22;12.30;1.00
5136;DHT22;2586;48.710;9.202;2023-05-20T01:27:49;12.20;1.00
5136;DHT22;2586;48.710;9.202;2023-05-20T01:30:16;12.20;1.00
5136;DHT22;2586;48.710;9.202;2023-05-20T01:32:52;12.10;7.00
5136;DHT22;2586;48.710;9.202;2023-05-20T01:35:20;12.10;1.00
5136;DHT22;2586;48.710;9.202;2023-05-20T01:37:47;12.10;13.00
5136;DHT22;2586;48.710;9.202;2023-05-20T01:40:15;12.20;38.70
5136;DHT22;2586;48.710;9.202;2023-05-20T01:42:42;12.20;99.90
5136;DHT22;2586;48.710;9.202;2023-05-20T01:45:08;12.10;91.10
5136;DHT22;2586;48.710;9.202;2023-05-20T01:47:34;12.20;71.10
5136;DHT22;2586;48.710;9.202;2023-05-20T01:49:59;12.20;99.90
5136;DHT22;2586;48.710;9.202;2023-05-20T01:52:25;12.20;99.90
5136;DHT22;2586;48.710;9.202;2023-05-20T01:54:51;12.20;99.90
5136;DHT22;2586;48.710;9.202;2023-05-20T01:57:18;12.10;99.90
5136;DHT22;2586;48.710;9.202;2023-05-20T01:59:44;12.10;99.90
5136;DHT22;2586;48.710;9.202;2023-05-20T02:02:09;12.10;99.90
5136;DHT22;2586;48.710;9.202;2023-05-20T02:04:35;12.10;99.90
5136;DHT22;2586;48.710;9.202;2023-05-20T02:07:01;12.10;99.90
5136;DHT22;2586;48.710;9.202;2023-05-20T02:09:27;12.00;99.90
5136;DHT22;2586;48.710;9.202;2023-05-20T02:11:53;11.90;99.90
5136;DHT22;2586;48.710;9.202;2023-05-20T02:14:18;11.90;1.00
5136;DHT22;2586;48.710;9.202;2023-05-20T02:16:45;11.90;1.00
5136;DHT22;2586;48.710;9.202;2023-05-20T02:19:12;11.90;1.00
5136;DHT22;2586;48.710;9.202;2023-05-20T02:21:41;11.80;1.00
5136;DHT22;2586;48.710;9.202;2023-05-20T02:24:07;11.80;1.00
5136;DHT22;2586;48.710;9.202;2023-05-20T02:26:33;11.80;1.00
5136;DHT22;2586;48.710;9.202;2023-05-20T02:28:59;11.70;1.00
5136;DHT22;2586;48.710;9.202;2023-05-20T02:31:24;11.70;1.00
5136;DHT22;2586;48.710;9.202;2023-05-20T02:33:50;11.70;97.80
5136;DHT22;2586;48.710;9.202;2023-05-20T02:36:15;11.60;99.90
5136;DHT22;2586;48.710;9.202;2023-05-20T02:38:41;11.60;99.90
5136;DHT22;2586;48.710;9.202;2023-05-20T02:41:07;11.60;99.90
5136;DHT22;2586;48.710;9.202;2023-05-20T02:43:33;11.50;1.00
5136;DHT22;2586;48.710;9.202;2023-05-20T02:45:59;11.40;1.00
5136;DHT22;2586;48.710;9.202;2023-05-20T02:48:24;11.40;1.00
5136;DHT22;2586;48.710;9.202;2023-05-20T02:50:50;11.40;89.00
5136;DHT22;2586;48.710;9.202;2023-05-20T02:53:17;11.30;31.50
5136;DHT22;2586;48.710;9.202;2023-05-20T02:55:45;11.30;99.90
5136;DHT22;2586;48.710;9.202;2023-05-20T02:58:12;11.30;32.50
5136;DHT22;2586;48.710;9.202;2023-05-20T03:00:38;11.30;28.70
5136;DHT22;2586;48.710;9.202;2023-05-20T03:03:05;11.30;9.30
5136;DHT22;2586;48.710;9.202;2023-05-20T03:05:35;11.20;99.90
5136;DHT22;2586;48.710;9.202;2023-05-20T03:08:09;11.30;99.90
5136;DHT22;2586;48.710;9.202;2023-05-20T03:10:38;11.30;99.90
5136;DHT22;2586;48.710;9.202;2023-05-20T03:13:05;11.30;99.90
5136;DHT22;2586;48.710;9.202;2023-05-20T03:15:38;11.30;99.90
5136;DHT22;2586;48.710;9.202;2023-05-20T03:18:04;11.30;99.90
5136;DHT22;2586;48.710;9.202;2023-05-20T03:20:30;11.30;1.00
5136;DHT22;2586;48.710;9.202;2023-05-20T03:23:01;11.20;99.90
5136;DHT22;2586;48.710;9.202;2023-05-20T03:25:27;11.20;1.00
5136;DHT22;2586;48.710;9.202;2023-05-20T03:27:53;11.20;1.00
5136;DHT22;2586;48.710;9.202;2023-05-20T03:30:19;11.10;1.00
5136;DHT22;2586;48.710;9.202;2023-05-20T03:32:45;11.10;1.00
5136;DHT22;2586;48.710;9.202;2023-05-20T03:35:10;11.00;92.90
5136;DHT22;2586;48.710;9.202;2023-05-20T03:37:36;11.10;99.90
5136;DHT22;2586;48.710;9.202;2023-05-20T03:40:02;11.00;99.90
5136;DHT22;2586;48.710;9.202;2023-05-20T03:42:31;11.00;99.90
5136;DHT22;2586;48.710;9.202;2023-05-20T03:44:57;10.90;99.90
5136;DHT22;2586;48.710;9.202;2023-05-20T03:47:24;11.00;1.00
5136;DHT22;2586;48.710;9.202;2023-05-20T03:49:50;11.00;1.00
5136;DHT22;2586;48.710;9.202;2023-05-20T03:52:15;11.00;1.00
5136;DHT22;2586;48.710;9.202;2023-05-20T03:54:41;11.00;51.20
5136;DHT22;2586;48.710;9.202;2023-05-20T03:57:07;11.00;99.90
5136;DHT22;2586;48.710;9.202;2023-05-20T03:59:35;11.10;11.00
5136;DHT22;2586;48.710;9.202;2023-05-20T04:02:01;11.20;1.00
5136;DHT22;2586;48.710;9.202;2023-05-20T04:04:27;11.30;1.00
5136;DHT22;2586;48.710;9.202;2023-05-20T04:06:52;11.30;99.90
5136;DHT22;2586;48.710;9.202;2023-05-20T04:09:19;11.40;99.90
5136;DHT22;2586;48.710;9.202;2023-05-20T04:11:44;11.40;1.00
5136;DHT22;2586;48.710;9.202;2023-05-20T04:14:10;11.50;1.00
5136;DHT22;2586;48.710;9.202;2023-05-20T04:16:36;11.50;1.00
5136;DHT22;2586;48.710;9.202;2023-05-20T04:19:02;11.50;1.00
5136;DHT22;2586;48.710;9.202;2023-05-20T04:21:28;11.60;1.00
5136;DHT22;2586;48.710;9.202;2023-05-20T04:23:53;11.60;1.00
5136;DHT22;2586;48.710;9.202;2023-05-20T04:26:19;11.70;99.90
5136;DHT22;2586;48.710;9.202;2023-05-20T04:28:45;11.80;99.90
5136;DHT22;2586;48.710;9.202;2023-05-20T04:31:13;11.90;99.90
5136;DHT22;2586;48.710;9.202;2023-05-20T04:33:38;11.90;25.20
5136;DHT22;2586;48.710;9.202;2023-05-20T04:36:06;11.90;1.00
5136;DHT22;2586;48.710;9.202;2023-05-20T04:38:32;11.90;1.00
5136;DHT22;2586;48.710;9.202;2023-05-20T04:40:58;11.90;1.00
5136;DHT22;2586;48.710;9.202;2023-05-20T04:43:25;12.00;1.00
5136;DHT22;2586;48.710;9.202;2023-05-20T04:45:54;12.00;1.00
5136;DHT22;2586;48.710;9.202;2023-05-20T04:48:20;12.00;1.00
5136;DHT22;2586;48.710;9.202;2023-05-20T04:50:49;12.10;1.00
5136;DHT22;2586;48.710;9.202;2023-05-20T04:53:16;12.10;99.90
5136;DHT22;2586;48.710;9.202;2023-05-20T04:55:42;12.20;99.90
5136;DHT22;2586;48.710;9.202;2023-05-20T04:58:08;12.30;99.90
5136;DHT22;2586;48.710;9.202;2023-05-20T05:00:43;12.40;99.90
5136;DHT22;2586;48.710;9.202;2023-05-20T05:03:09;12.40;1.00
5136;DHT22;2586;48.710;9.202;2023-05-20T05:05:36;12.40;1.00
5136;DHT22;2586;48.710;9.202;2023-05-20T05:08:06;12.50;1.00
5136;DHT22;2586;48.710;9.202;2023-05-20T05:10:32;12.60;99.90
5136;DHT22;2586;48.710;9.202;2023-05-20T05:12:58;12.60;1.80
5136;DHT22;2586;48.710;9.202;2023-05-20T05:15:24;12.70;1.00
5136;DHT22;2586;48.710;9.202;2023-05-20T05:17:49;12.80;1.00
5136;DHT22;2586;48.710;9.202;2023-05-20T05:20:16;12.80;1.00
5136;DHT22;2586;48.710;9.202;2023-05-20T05:22:41;12.80;1.00
5136;DHT22;2586;48.710;9.202;2023-05-20T05:25:08;12.80;1.00
5136;DHT22;2586;48.710;9.202;2023-05-20T05:27:34;12.90;1.00
5136;DHT22;2586;48.710;9.202;2023-05-20T05:30:01;13.00;1.00
5136;DHT22;2586;48.710;9.202;2023-05-20T05:32:26;13.00;1.00
5136;DHT22;2586;48.710;9.202;2023-05-20T05:34:52;13.00;99.90
5136;DHT22;2586;48.710;9.202;2023-05-20T05:37:18;13.10;99.90
5136;DHT22;2586;48.710;9.202;2023-05-20T05:39:43;13.20;99.90
5136;DHT22;2586;48.710;9.202;2023-05-20T05:42:09;13.20;99.90
5136;DHT22;2586;48.710;9.202;2023-05-20T05:44:35;13.20;99.90
5136;DHT22;2586;48.710;9.202;2023-05-20T05:47:00;13.20;99.90
5136;DHT22;2586;48.710;9.202;2023-05-20T05:49:26;13.20;99.90
5136;DHT22;2586;48.710;9.202;2023-05-20T05:51:51;13.30;99.90
5136;DHT22;2586;48.710;9.202;2023-05-20T05:54:17;13.40;99.90
5136;DHT22;2586;48.710;9.202;2023-05-20T05:56:44;13.40;99.90
5136;DHT22;2586;48.710;9.202;2023-05-20T05:59:10;13.30;99.90
5136;DHT22;2586;48.710;9.202;2023-05-20T06:01:35;13.30;99.90
5136;DHT22;2586;48.710;9.202;2023-05-20T06:04:01;13.50;99.90
5136;DHT22;2586;48.710;9.202;2023-05-20T06:06:27;13.60;50.20
5136;DHT22;2586;48.710;9.202;2023-05-20T06:08:53;13.60;99.90
5136;DHT22;2586;48.710;9.202;2023-05-20T06:11:18;13.70;60.30
5136;DHT22;2586;48.710;9.202;2023-05-20T06:13:45;13.70;99.90
5136;DHT22;2586;48.710;9.202;2023-05-20T06:16:10;13.80;99.90
5136;DHT22;2586;48.710;9.202;2023-05-20T06:18:36;13.90;1.00
5136;DHT22;2586;48.710;9.202;2023-05-20T06:21:02;14.00;1.00
5136;DHT22;2586;48.710;9.202;2023-05-20T06:23:27;14.10;1.00
5136;DHT22;2586;48.710;9.202;2023-05-20T06:25:57;14.20;1.00
5136;DHT22;2586;48.710;9.202;2023-05-20T06:28:23;14.30;1.00
5136;DHT22;2586;48.710;9.202;2023-05-20T06:30:48;14.50;99.90
5136;DHT22;2586;48.710;9.202;2023-05-20T06:33:14;14.60;99.90
5136;DHT22;2586;48.710;9.202;2023-05-20T06:35:39;14.60;99.90
5136;DHT22;2586;48.710;9.202;2023-05-20T06:38:05;14.70;99.90
5136;DHT22;2586;48.710;9.202;2023-05-20T06:40:30;14.70;99.90
5136;DHT22;2586;48.710;9.202;2023-05-20T06:42:56;14.70;99.90
5136;DHT22;2586;48.710;9.202;2023-05-20T06:45:21;14.80;99.90
5136;DHT22;2586;48.710;9.202;2023-05-20T06:47:47;14.90;99.90
5136;DHT22;2586;48.710;9.202;2023-05-20T06:50:14;15.00;99.90
5136;DHT22;2586;48.710;9.202;2023-05-20T06:52:39;15.00;99.90
5136;DHT22;2586;48.710;9.202;2023-05-20T06:55:05;15.20;99.90
5136;DHT22;2586;48.710;9.202;2023-05-20T06:57:31;15.30;99.90
5136;DHT22;2586;48.710;9.202;2023-05-20T06:59:56;15.30;94.90
5136;DHT22;2586;48.710;9.202;2023-05-20T07:02:22;15.50;26.50
5136;DHT22;2586;48.710;9.202;2023-05-20T07:04:48;15.60;1.00
5136;DHT22;2586;48.710;9.202;2023-05-20T07:07:14;15.80;1.00
5136;DHT22;2586;48.710;9.202;2023-05-20T07:09:39;16.00;1.00
5136;DHT22;2586;48.710;9.202;2023-05-20T07:12:05;16.10;1.00
5136;DHT22;2586;48.710;9.202;2023-05-20T07:14:31;16.10;1.00
5136;DHT22;2586;48.710;9.202;2023-05-20T07:16:57;16.30;1.00
5136;DHT22;2586;48.710;9.202;2023-05-20T07:19:22;16.30;1.00
5136;DHT22;2586;48.710;9.202;2023-05-20T07:21:48;16.20;1.00
5136;DHT22;2586;48.710;9.202;2023-05-20T07:24:17;16.20;1.00
5136;DHT22;2586;48.710;9.202;2023-05-20T07:26:43;16.20;1.00
5136;DHT22;2586;48.710;9.202;2023-05-20T07:29:08;16.20;1.00
5136;DHT22;2586;48.710;9.202;2023-05-20T07:31:34;16.20;1.00
5136;DHT22;2586;48.710;9.202;2023-05-20T07:34:00;16.20;1.00
5136;DHT22;2586;48.710;9.202;2023-05-20T07:36:26;16.40;1.00
5136;DHT22;2586;48.710;9.202;2023-05-20T07:38:53;16.70;1.00
5136;DHT22;2586;48.710;9.202;2023-05-20T07:41:18;17.00;1.00
5136;DHT22;2586;48.710;9.202;2023-05-20T07:43:44;17.00;99.90
5136;DHT22;2586;48.710;9.202;2023-05-20T07:46:10;17.00;99.90
5136;DHT22;2586;48.710;9.202;2023-05-20T07:48:36;17.10;99.90
5136;DHT22;2586;48.710;9.202;2023-05-20T07:51:01;17.40;99.90
5136;DHT22;2586;48.710;9.202;2023-05-20T07:53:27;17.40;99.90
5136;DHT22;2586;48.710;9.202;2023-05-20T07:55:53;17.10;99.90
5136;DHT22;2586;48.710;9.202;2023-05-20T07:58:18;17.00;99.90
5136;DHT22;2586;48.710;9.202;2023-05-20T08:00:44;16.90;99.90
5136;DHT22;2586;48.710;9.202;2023-05-20T08:03:09;16.90;99.90
5136;DHT22;2586;48.710;9.202;2023-05-20T08:05:36;16.90;99.90
5136;DHT22;2586;48.710;9.202;2023-05-20T08:08:03;16.90;99.90
5136;DHT22;2586;48.710;9.202;2023-05-20T08:10:28;16.80;99.90
5136;DHT22;2586;48.710;9.202;2023-05-20T08:12:54;16.80;99.90
5136;DHT22;2586;48.710;9.202;2023-05-20T08:15:20;16.90;99.90
5136;DHT22;2586;48.710;9.202;2023-05-20T08:17:45;17.00;99.90
5136;DHT22;2586;48.710;9.202;2023-05-20T08:20:11;17.10;99.90
5136;DHT22;2586;48.710;9.202;2023-05-20T08:22:37;17.00;99.90
5136;DHT22;2586;48.710;9.202;2023-05-20T08:25:06;16.90;99.90
5136;DHT22;2586;48.710;9.202;2023-05-20T08:27:32;16.80;99.90
5136;DHT22;2586;48.710;9.202;2023-05-20T08:29:57;16.80;99.90
5136;DHT22;2586;48.710;9.202;2023-05-20T08:32:23;16.80;99.90
5136;DHT22;2586;48.710;9.202;2023-05-20T08:34:49;16.80;1.00
5136;DHT22;2586;48.710;9.202;2023-05-20T08:37:14;16.70;99.90
5136;DHT22;2586;48.710;9.202;2023-05-20T08:39:41;16.80;99.90
5136;DHT22;2586;48.710;9.202;2023-05-20T08:42:07;16.80;99.90
5136;DHT22;2586;48.710;9.202;2023-05-20T08:44:35;17.00;1.00
5136;DHT22;2586;48.710;9.202;2023-05-20T08:47:02;17.20;99.90
5136;DHT22;2586;48.710;9.202;2023-05-20T08:49:30;17.80;99.90
5136;DHT22;2586;48.710;9.202;2023-05-20T08:51:57;18.40;99.90
5136;DHT22;2586;48.710;9.202;2023-05-20T08:54:26;18.30;99.90
5136;DHT22;2586;48.710;9.202;2023-05-20T08:56:55;18.40;99.90
5136;DHT22;2586;48.710;9.202;2023-05-20T08:59:21;18.40;99.90
5136;DHT22;2586;48.710;9.202;2023-05-20T09:01:47;18.50;99.90
5136;DHT22;2586;48.710;9.202;2023-05-20T09:04:13;18.20;99.90
5136;DHT22;2586;48.710;9.202;2023-05-20T09:06:43;18.40;99.90
5136;DHT22;2586;48.710;9.202;2023-05-20T09:09:13;18.80;99.90
5136;DHT22;2586;48.710;9.202;2023-05-20T09:11:42;19.30;99.90
5136;DHT22;2586;48.710;9.202;2023-05-20T09:14:08;19.70;99.90
5136;DHT22;2586;48.710;9.202;2023-05-20T09:16:34;19.70;99.90
5136;DHT22;2586;48.710;9.202;2023-05-20T09:19:00;19.50;99.90
5136;DHT22;2586;48.710;9.202;2023-05-20T09:21:29;19.60;99.90
5136;DHT22;2586;48.710;9.202;2023-05-20T09:23:55;19.50;99.90
5136;DHT22;2586;48.710;9.202;2023-05-20T09:26:27;19.90;99.90
5136;DHT22;2586;48.710;9.202;2023-05-20T09:28:57;20.00;99.90
5136;DHT22;2586;48.710;9.202;2023-05-20T09:31:27;19.70;99.90
5136;DHT22;2586;48.710;9.202;2023-05-20T09:33:54;20.10;99.90
5136;DHT22;2586;48.710;9.202;2023-05-20T09:36:22;20.40;99.90
5136;DHT22;2586;48.710;9.202;2023-05-20T09:38:51;20.80;99.90
5136;DHT22;2586;48.710;9.202;2023-05-20T09:41:22;21.00;99.90
5136;DHT22;2586;48.710;9.202;2023-05-20T09:43:49;21.70;99.90
5136;DHT22;2586;48.710;9.202;2023-05-20T09:46:16;21.80;99.90
5136;DHT22;2586;48.710;9.202;2023-05-20T09:48:42;21.50;98.20
5136;DHT22;2586;48.710;9.202;2023-05-20T09:51:09;21.10;94.70
5136;DHT22;2586;48.710;9.202;2023-05-20T09:53:35;21.50;91.60
5136;DHT22;2586;48.710;9.202;2023-05-20T09:56:01;21.90;95.20
5136;DHT22;2586;48.710;9.202;2023-05-20T09:58:28;22.30;90.00
5136;DHT22;2586;48.710;9.202;2023-05-20T10:00:54;22.80;89.10
5136;DHT22;2586;48.710;9.202;2023-05-20T10:03:21;23.20;72.50
5136;DHT22;2586;48.710;9.202;2023-05-20T10:11:29;23.90;28.10
5136;DHT22;2586;48.710;9.202;2023-05-20T10:14:23;23.80;20.60
5136;DHT22;2586;48.710;9.202;2023-05-20T10:17:00;23.30;16.10
5136;DHT22;2586;48.710;9.202;2023-05-20T10:19:32;23.00;22.30
5136;DHT22;2586;48.710;9.202;2023-05-20T10:22:06;23.20;20.70
5136;DHT22;2586;48.710;9.202;2023-05-20T10:24:37;23.20;24.50
5136;DHT22;2586;48.710;9.202;2023-05-20T10:27:08;22.50;15.90
5136;DHT22;2586;48.710;9.202;2023-05-20T10:29:54;22.10;22.40
5136;DHT22;2586;48.710;9.202;2023-05-20T10:32:29;21.90;19.30
5136;DHT22;2586;48.710;9.202;2023-05-20T10:35:03;21.90;32.80
5136;DHT22;2586;48.710;9.202;2023-05-20T10:37:32;22.00;27.30
5136;DHT22;2586;48.710;9.202;2023-05-20T10:40:11;22.10;28.70
5136;DHT22;2586;48.710;9.202;2023-05-20T10:42:37;22.00;23.90
5136;DHT22;2586;48.710;9.202;2023-05-20T10:45:03;22.40;29.70
5136;DHT22;2586;48.710;9.202;2023-05-20T10:47:30;23.30;39.10
5136;DHT22;2586;48.710;9.202;2023-05-20T10:49:56;23.50;19.10
5136;DHT22;2586;48.710;9.202;2023-05-20T10:52:23;23.80;25.50
5136;DHT22;2586;48.710;9.202;2023-05-20T10:54:56;24.00;15.10
5136;DHT22;2586;48.710;9.202;2023-05-20T10:57:22;24.30;24.10
5136;DHT22;2586;48.710;9.202;2023-05-20T10:59:49;24.40;16.00
5136;DHT22;2586;48.710;9.202;2023-05-20T11:02:16;24.40;9.90
5136;DHT22;2586;48.710;9.202;2023-05-20T11:04:45;23.90;2.00
5136;DHT22;2586;48.710;9.202;2023-05-20T11:07:11;23.70;11.60
5136;DHT22;2586;48.710;9.202;2023-05-20T11:09:38;23.90;11.10
5136;DHT22;2586;48.710;9.202;2023-05-20T11:12:04;24.50;14.90
5136;DHT22;2586;48.710;9.202;2023-05-20T11:14:30;24.90;6.10
5136;DHT22;2586;48.710;9.202;2023-05-20T11:16:59;25.40;1.00
5136;DHT22;2586;48.710;9.202;2023-05-20T11:19:26;25.30;1.00
5136;DHT22;2586;48.710;9.202;2023-05-20T11:21:52;25.60;1.00
5136;DHT22;2586;48.710;9.202;2023-05-20T11:24:25;25.50;1.00
5136;DHT22;2586;48.710;9.202;2023-05-20T11:26:52;25.40;1.00
5136;DHT22;2586;48.710;9.202;2023-05-20T11:29:18;25.80;1.00
5136;DHT22;2586;48.710;9.202;2023-05-20T11:31:48;26.40;1.00
5136;DHT22;2586;48.710;9.202;2023-05-20T11:34:15;27.00;1.00
5136;DHT22;2586;48.710;9.202;2023-05-20T11:36:42;27.20;1.00
5136;DHT22;2586;48.710;9.202;2023-05-20T11:39:10;26.90;1.00
5136;DHT22;2586;48.710;9.202;2023-05-20T11:41:36;26.30;1.00
5136;DHT22;2586;48.710;9.202;2023-05-20T11:44:01;25.70;1.00
5136;DHT22;2586;48.710;9.202;2023-05-20T11:46:27;25.20;1.00
5136;DHT22;2586;48.710;9.202;2023-05-20T11:48:53;24.90;1.00
5136;DHT22;2586;48.710;9.202;2023-05-20T11:51:28;24.70;1.00
5136;DHT22;2586;48.710;9.202;2023-05-20T11:54:01;24.40;1.00
5136;DHT22;2586;48.710;9.202;2023-05-20T11:56:28;24.20;1.00
5136;DHT22;2586;48.710;9.202;2023-05-20T11:58:56;24.10;1.00
5136;DHT22;2586;48.710;9.202;2023-05-20T12:01:22;24.00;1.00
5136;DHT22;2586;48.710;9.202;2023-05-20T12:03:47;24.00;1.00
5136;DHT22;2586;48.710;9.202;2023-05-20T12:06:13;24.70;1.00
5136;DHT22;2586;48.710;9.202;2023-05-20T12:08:39;25.20;1.00
5136;DHT22;2586;48.710;9.202;2023-05-20T12:11:04;25.10;1.00
5136;DHT22;2586;48.710;9.202;2023-05-20T12:13:30;25.80;1.00
5136;DHT22;2586;48.710;9.202;2023-05-20T12:15:56;26.80;1.00
5136;DHT22;2586;48.710;9.202;2023-05-20T12:18:21;26.90;1.00
5136;DHT22;2586;48.710;9.202;2023-05-20T12:20:47;26.90;1.00
5136;DHT22;2586;48.710;9.202;2023-05-20T12:23:12;27.10;1.00
5136;DHT22;2586;48.710;9.202;2023-05-20T12:25:38;26.70;1.00
5136;DHT22;2586;48.710;9.202;2023-05-20T12:28:03;26.10;1.00
5136;DHT22;2586;48.710;9.202;2023-05-20T12:30:29;25.90;1.00
5136;DHT22;2586;48.710;9.202;2023-05-20T12:32:55;25.90;1.00
5136;DHT22;2586;48.710;9.202;2023-05-20T12:35:34;25.30;1.00
5136;DHT22;2586;48.710;9.202;2023-05-20T12:38:00;25.30;1.00
5136;DHT22;2586;48.710;9.202;2023-05-20T12:40:26;26.00;1.00
5136;DHT22;2586;48.710;9.202;2023-05-20T12:42:51;26.20;1.00
5136;DHT22;2586;48.710;9.202;2023-05-20T12:45:17;26.60;1.00
5136;DHT22;2586;48.710;9.202;2023-05-20T12:47:43;26.70;1.00
5136;DHT22;2586;48.710;9.202;2023-05-20T12:50:09;26.40;1.00
5136;DHT22;2586;48.710;9.202;2023-05-20T12:52:35;25.70;1.00
5136;DHT22;2586;48.710;9.202;2023-05-20T12:55:00;25.10;1.00
5136;DHT22;2586;48.710;9.202;2023-05-20T12:57:26;25.20;1.00
5136;DHT22;2586;48.710;9.202;2023-05-20T12:59:52;26.00;1.00
5136;DHT22;2586;48.710;9.202;2023-05-20T13:02:18;27.00;1.00
5136;DHT22;2586;48.710;9.202;2023-05-20T13:04:44;27.10;1.00
5136;DHT22;2586;48.710;9.202;2023-05-20T13:07:09;27.30;1.00
5136;DHT22;2586;48.710;9.202;2023-05-20T13:09:35;27.90;1.00
5136;DHT22;2586;48.710;9.202;2023-05-20T13:12:01;28.00;1.00
5136;DHT22;2586;48.710;9.202;2023-05-20T13:14:26;28.30;1.00
5136;DHT22;2586;48.710;9.202;2023-05-20T13:16:52;27.90;1.00
5136;DHT22;2586;48.710;9.202;2023-05-20T13:19:22;27.80;1.00
5136;DHT22;2586;48.710;9.202;2023-05-20T13:21:49;27.20;1.00
5136;DHT22;2586;48.710;9.202;2023-05-20T13:24:16;26.90;1.00
5136;DHT22;2586;48.710;9.202;2023-05-20T13:26:42;26.70;1.00
5136;DHT22;2586;48.710;9.202;2023-05-20T13:29:08;26.70;1.00
5136;DHT22;2586;48.710;9.202;2023-05-20T13:31:33;27.20;1.00
5136;DHT22;2586;48.710;9.202;2023-05-20T13:33:59;27.30;1.00
5136;DHT22;2586;48.710;9.202;2023-05-20T13:36:25;27.30;1.00
5136;DHT22;2586;48.710;9.202;2023-05-20T13:38:51;27.20;1.00
5136;DHT22;2586;48.710;9.202;2023-05-20T13:41:17;27.50;1.00
5136;DHT22;2586;48.710;9.202;2023-05-20T13:43:42;27.40;1.00
5136;DHT22;2586;48.710;9.202;2023-05-20T13:46:08;26.80;1.00
5136;DHT22;2586;48.710;9.202;2023-05-20T13:48:33;26.10;1.00
5136;DHT22;2586;48.710;9.202;2023-05-20T13:50:59;25.80;1.00
5136;DHT22;2586;48.710;9.202;2023-05-20T13:53:26;25.50;1.00
5136;DHT22;2586;48.710;9.202;2023-05-20T13:55:52;25.30;1.00
5136;DHT22;2586;48.710;9.202;2023-05-20T13:58:17;25.40;1.00
5136;DHT22;2586;48.710;9.202;2023-05-20T14:00:43;25.40;1.00
5136;DHT22;2586;48.710;9.202;2023-05-20T14:03:08;26.00;1.00
5136;DHT22;2586;48.710;9.202;2023-05-20T14:05:34;26.30;1.00
5136;DHT22;2586;48.710;9.202;2023-05-20T14:08:01;26.20;1.00
5136;DHT22;2586;48.710;9.202;2023-05-20T14:10:27;25.90;1.00
5136;DHT22;2586;48.710;9.202;2023-05-20T14:12:57;26.10;1.00
5136;DHT22;2586;48.710;9.202;2023-05-20T14:15:23;26.40;1.00
5136;DHT22;2586;48.710;9.202;2023-05-20T14:17:49;26.40;1.00
5136;DHT22;2586;48.710;9.202;2023-05-20T14:20:15;26.40;1.00
5136;DHT22;2586;48.710;9.202;2023-05-20T14:22:40;26.20;1.00
5136;DHT22;2586;48.710;9.202;2023-05-20T14:25:06;26.10;1.00
5136;DHT22;2586;48.710;9.202;2023-05-20T14:27:32;26.60;1.00
5136;DHT22;2586;48.710;9.202;2023-05-20T14:30:01;26.40;1.00
5136;DHT22;2586;48.710;9.202;2023-05-20T14:32:27;25.90;1.00
5136;DHT22;2586;48.710;9.202;2023-05-20T14:34:53;25.60;1.00
5136;DHT22;2586;48.710;9.202;2023-05-20T14:37:18;25.30;1.00
5136;DHT22;2586;48.710;9.202;2023-05-20T14:39:44;24.90;1.00
5136;DHT22;2586;48.710;9.202;2023-05-20T14:42:10;24.60;1.00
5136;DHT22;2586;48.710;9.202;2023-05-20T14:44:36;24.60;1.00
5136;DHT22;2586;48.710;9.202;2023-05-20T14:47:02;24.50;1.00
5136;DHT22;2586;48.710;9.202;2023-05-20T14:49:28;24.50;1.00
5136;DHT22;2586;48.710;9.202;2023-05-20T14:51:53;24.60;1.00
5136;DHT22;2586;48.710;9.202;2023-05-20T14:54:19;24.60;1.00
5136;DHT22;2586;48.710;9.202;2023-05-20T14:56:49;24.70;1.00
5136;DHT22;2586;48.710;9.202;2023-05-20T14:59:15;24.70;1.00
5136;DHT22;2586;48.710;9.202;2023-05-20T15:01:41;24.80;1.00
5136;DHT22;2586;48.710;9.202;2023-05-20T15:04:06;24.70;1.00
5136;DHT22;2586;48.710;9.202;2023-05-20T15:06:32;24.60;1.00
5136;DHT22;2586;48.710;9.202;2023-05-20T15:09:00;24.50;1.00
5136;DHT22;2586;48.710;9.202;2023-05-20T15:11:26;24.20;1.00
5136;DHT22;2586;48.710;9.202;2023-05-20T15:13:51;24.20;1.00
5136;DHT22;2586;48.710;9.202;2023-05-20T15:16:17;24.40;1.00
5136;DHT22;2586;48.710;9.202;2023-05-20T15:18:48;24.60;1.00
5136;DHT22;2586;48.710;9.202;2023-05-20T15:21:14;25.00;1.00
5136;DHT22;2586;48.710;9.202;2023-05-20T15:23:40;25.60;1.00
5136;DHT22;2586;48.710;9.202;2023-05-20T15:26:06;26.30;1.00
5136;DHT22;2586;48.710;9.202;2023-05-20T15:28:31;27.10;1.00
5136;DHT22;2586;48.710;9.202;2023-05-20T15:30:57;27.00;1.00
5136;DHT22;2586;48.710;9.202;2023-05-20T15:33:22;26.80;1.00
5136;DHT22;2586;48.710;9.202;2023-05-20T15:35:48;26.30;1.00
5136;DHT22;2586;48.710;9.202;2023-05-20T15:38:14;25.80;1.00
5136;DHT22;2586;48.710;9.202;2023-05-20T15:40:40;25.60;1.00
5136;DHT22;2586;48.710;9.202;2023-05-20T15:43:06;25.70;1.00
5136;DHT22;2586;48.710;9.202;2023-05-20T15:45:32;26.20;1.00
5136;DHT22;2586;48.710;9.202;2023-05-20T15:47:58;27.00;1.00
5136;DHT22;2586;48.710;9.202;2023-05-20T15:50:23;27.90;1.00
5136;DHT22;2586;48.710;9.202;2023-05-20T15:52:51;27.70;1.00
5136;DHT22;2586;48.710;9.202;2023-05-20T15:55:17;28.40;1.00
5136;DHT22;2586;48.710;9.202;2023-05-20T15:57:43;28.90;1.00
5136;DHT22;2586;48.710;9.202;2023-05-20T16:00:09;29.60;1.00
5136;DHT22;2586;48.710;9.202;2023-05-20T16:02:36;29.90;1.00
5136;DHT22;2586;48.710;9.202;2023-05-20T16:05:02;29.50;1.00
5136;DHT22;2586;48.710;9.202;2023-05-20T16:07:30;29.40;1.00
5136;DHT22;2586;48.710;9.202;2023-05-20T16:09:55;28.80;1.00
5136;DHT22;2586;48.710;9.202;2023-05-20T16:12:22;28.50;1.00